createdAt,value
2022-09-12T00:00:31.976Z,64.43
2022-09-12T00:01:53.824Z,64.86
2022-09-12T00:02:56.125Z,64.51
2022-09-12T00:04:01.258Z,63.61
2022-09-12T00:05:04.138Z,62.10
2022-09-12T00:06:21.954Z,60.93
2022-09-12T00:07:24.811Z,60.45
2022-09-12T00:08:26.609Z,59.98
2022-09-12T00:09:28.242Z,59.61
2022-09-12T00:10:29.950Z,58.73
2022-09-12T00:11:31.728Z,57.93
2022-09-12T00:12:33.358Z,57.69
2022-09-12T00:13:40.818Z,58.13
2022-09-12T00:14:43.214Z,59.49
2022-09-12T00:15:45.289Z,60.41
2022-09-12T00:16:47.313Z,62.17
2022-09-12T00:17:49.124Z,63.17
2022-09-12T00:18:52.174Z,64.54
2022-09-12T00:19:53.883Z,65.09
2022-09-12T00:20:55.530Z,64.83
2022-09-12T00:21:57.245Z,64.27
2022-09-12T00:22:58.861Z,62.99
2022-09-12T00:24:00.927Z,62.10
2022-09-12T00:25:03.918Z,61.25
2022-09-12T00:26:07.798Z,60.39
2022-09-12T00:27:09.427Z,59.78
2022-09-12T00:28:12.805Z,59.83
2022-09-12T00:29:20.262Z,58.82
2022-09-12T00:30:21.873Z,58.22
2022-09-12T00:31:26.419Z,58.70
2022-09-12T00:32:28.199Z,59.78
2022-09-12T00:33:29.867Z,60.59
2022-09-12T00:34:31.594Z,61.69
2022-09-12T00:35:33.411Z,62.75
2022-09-12T00:36:35.734Z,64.58
2022-09-12T00:37:37.394Z,65.19
2022-09-12T00:38:41.877Z,64.72
2022-09-12T00:39:43.801Z,63.65
2022-09-12T00:40:46.025Z,62.35
2022-09-12T00:41:47.722Z,61.79
2022-09-12T00:42:49.370Z,61.04
2022-09-12T00:43:56.990Z,60.22
2022-09-12T00:44:58.797Z,59.46
2022-09-12T00:46:10.526Z,58.67
2022-09-12T00:47:23.762Z,57.87
2022-09-12T00:48:35.240Z,58.65
2022-09-12T00:49:54.872Z,59.96
2022-09-12T00:50:56.697Z,61.58
2022-09-12T00:52:01.301Z,62.94
2022-09-12T00:53:08.253Z,64.43
2022-09-12T00:54:17.082Z,64.93
2022-09-12T00:55:27.759Z,64.25
2022-09-12T00:56:29.984Z,63.07
2022-09-12T00:57:37.611Z,61.92
2022-09-12T00:58:49.685Z,61.18
2022-09-12T00:59:58.956Z,60.88
2022-09-12T01:01:01.066Z,60.22
2022-09-12T01:02:03.933Z,59.83
2022-09-12T01:03:10.874Z,59.62
2022-09-12T01:04:13.609Z,59.40
2022-09-12T01:05:16.134Z,58.75
2022-09-12T01:06:17.687Z,58.09
2022-09-12T01:07:21.743Z,58.36
2022-09-12T01:08:26.106Z,59.31
2022-09-12T01:09:27.787Z,61.30
2022-09-12T01:10:30.447Z,62.69
2022-09-12T01:11:39.647Z,64.70
2022-09-12T01:12:43.571Z,65.40
2022-09-12T01:13:46.252Z,65.09
2022-09-12T01:14:47.878Z,64.38
2022-09-12T01:15:49.544Z,63.46
2022-09-12T01:16:51.706Z,62.37
2022-09-12T01:18:11.367Z,61.88
2022-09-12T01:19:31.917Z,60.93
2022-09-12T01:20:47.000Z,60.72
2022-09-12T01:22:07.060Z,59.92
2022-09-12T01:23:19.785Z,59.92
2022-09-12T01:24:43.549Z,59.51
2022-09-12T01:26:32.538Z,58.32
2022-09-12T01:27:55.117Z,58.66
2022-09-12T01:29:25.329Z,60.77
2022-09-12T01:30:47.040Z,62.22
2022-09-12T01:32:04.408Z,64.69
2022-09-12T01:33:27.230Z,65.32
2022-09-12T01:34:43.997Z,65.07
2022-09-12T01:36:04.495Z,64.00
2022-09-12T01:37:35.454Z,62.99
2022-09-12T01:38:45.522Z,61.99
2022-09-12T01:40:16.622Z,61.27
2022-09-12T01:41:42.138Z,60.47
2022-09-12T01:43:02.216Z,59.97
2022-09-12T01:44:12.312Z,59.65
2022-09-12T01:45:36.500Z,59.08
2022-09-12T01:46:56.709Z,58.28
2022-09-12T01:48:27.929Z,59.18
2022-09-12T01:49:33.358Z,60.39
2022-09-12T01:50:44.291Z,62.21
2022-09-12T01:52:18.509Z,63.71
2022-09-12T01:53:38.182Z,64.83
2022-09-12T01:54:51.398Z,64.47
2022-09-12T01:56:22.423Z,63.74
2022-09-12T01:57:32.251Z,62.46
2022-09-12T01:58:44.993Z,61.86
2022-09-12T01:59:57.423Z,61.40
2022-09-12T02:01:10.481Z,60.89
2022-09-12T02:02:36.378Z,60.23
2022-09-12T02:04:15.386Z,59.89
2022-09-12T02:05:45.036Z,59.20
2022-09-12T02:06:59.823Z,58.85
2022-09-12T02:08:18.890Z,59.77
2022-09-12T02:09:36.893Z,60.85
2022-09-12T02:10:56.050Z,62.62
2022-09-12T02:12:01.342Z,64.56
2022-09-12T02:13:11.772Z,65.06
2022-09-12T02:14:24.301Z,64.76
2022-09-12T02:15:43.392Z,64.05
2022-09-12T02:16:51.240Z,63.24
2022-09-12T02:17:58.291Z,62.25
2022-09-12T02:19:17.618Z,61.85
2022-09-12T02:20:47.903Z,61.20
2022-09-12T02:21:55.205Z,61.25
2022-09-12T02:22:58.205Z,60.78
2022-09-12T02:24:04.894Z,60.71
2022-09-12T02:25:11.566Z,60.26
2022-09-12T02:26:23.396Z,60.04
2022-09-12T02:28:06.698Z,59.93
2022-09-12T02:29:08.371Z,59.59
2022-09-12T02:30:10.850Z,59.22
2022-09-12T02:31:15.424Z,58.56
2022-09-12T02:32:36.416Z,58.97
2022-09-12T02:34:00.123Z,60.31
2022-09-12T02:35:11.730Z,61.96
2022-09-12T02:36:22.225Z,63.77
2022-09-12T02:37:30.498Z,65.20
2022-09-12T02:38:45.252Z,65.32
2022-09-12T02:39:47.362Z,64.52
2022-09-12T02:40:49.161Z,63.81
2022-09-12T02:41:54.572Z,63.17
2022-09-12T02:42:57.131Z,62.44
2022-09-12T02:43:58.942Z,61.80
2022-09-12T02:45:01.168Z,61.13
2022-09-12T02:46:02.981Z,60.58
2022-09-12T02:47:31.295Z,60.44
2022-09-12T02:48:41.384Z,60.27
2022-09-12T02:49:43.247Z,60.07
2022-09-12T02:50:45.186Z,59.66
2022-09-12T02:51:48.597Z,59.32
2022-09-12T02:52:54.679Z,58.60
2022-09-12T02:53:57.637Z,58.48
2022-09-12T02:54:59.704Z,59.27
2022-09-12T02:56:01.732Z,59.99
2022-09-12T02:57:04.016Z,61.71
2022-09-12T02:58:12.918Z,63.51
2022-09-12T02:59:20.324Z,65.24
2022-09-12T03:00:24.102Z,65.72
2022-09-12T03:01:44.102Z,65.30
2022-09-12T03:03:08.726Z,64.25
2022-09-12T03:04:19.023Z,63.09
2022-09-12T03:05:50.685Z,62.33
2022-09-12T03:07:27.047Z,61.40
2022-09-12T03:09:16.329Z,60.86
2022-09-12T03:10:32.733Z,60.14
2022-09-12T03:11:43.174Z,59.72
2022-09-12T03:13:04.030Z,59.83
2022-09-12T03:14:23.895Z,59.75
2022-09-12T03:15:54.779Z,59.59
2022-09-12T03:17:05.441Z,59.11
2022-09-12T03:18:28.756Z,58.65
2022-09-12T03:20:03.132Z,59.71
2022-09-12T03:21:19.167Z,61.95
2022-09-12T03:22:53.437Z,63.96
2022-09-12T03:24:23.469Z,64.96
2022-09-12T03:25:41.629Z,64.29
2022-09-12T03:27:03.502Z,63.29
2022-09-12T03:28:15.577Z,62.44
2022-09-12T03:29:20.137Z,61.76
2022-09-12T03:30:21.832Z,61.38
2022-09-12T03:31:23.490Z,60.98
2022-09-12T03:32:46.236Z,60.41
2022-09-12T03:33:47.957Z,60.34
2022-09-12T03:34:49.637Z,60.06
2022-09-12T03:35:53.163Z,59.76
2022-09-12T03:36:55.605Z,59.45
2022-09-12T03:37:57.262Z,58.98
2022-09-12T03:38:58.861Z,58.38
2022-09-12T03:40:01.100Z,59.37
2022-09-12T03:41:02.729Z,61.15
2022-09-12T03:42:04.535Z,62.62
2022-09-12T03:43:08.101Z,64.16
2022-09-12T03:44:09.714Z,65.16
2022-09-12T03:45:11.782Z,65.02
2022-09-12T03:46:14.046Z,64.37
2022-09-12T03:47:15.689Z,63.58
2022-09-12T03:48:17.354Z,62.91
2022-09-12T03:49:18.966Z,62.44
2022-09-12T03:50:20.831Z,61.78
2022-09-12T03:51:22.573Z,61.24
2022-09-12T03:52:24.435Z,60.82
2022-09-12T03:53:26.048Z,60.40
2022-09-12T03:54:27.862Z,60.19
2022-09-12T03:55:29.690Z,60.06
2022-09-12T03:56:31.601Z,59.83
2022-09-12T03:57:33.435Z,59.56
2022-09-12T03:58:36.299Z,59.45
2022-09-12T03:59:38.342Z,58.87
2022-09-12T04:00:41.005Z,58.25
2022-09-12T04:01:42.599Z,58.99
2022-09-12T04:02:44.209Z,60.33
2022-09-12T04:03:49.223Z,61.49
2022-09-12T04:04:50.870Z,62.73
2022-09-12T04:05:52.702Z,64.75
2022-09-12T04:06:54.589Z,65.53
2022-09-12T04:07:56.228Z,65.11
2022-09-12T04:08:58.575Z,64.44
2022-09-12T04:10:00.248Z,63.64
2022-09-12T04:11:10.784Z,62.78
2022-09-12T04:12:13.978Z,62.13
2022-09-12T04:13:15.634Z,61.70
2022-09-12T04:14:17.663Z,61.39
2022-09-12T04:15:19.729Z,60.94
2022-09-12T04:16:21.520Z,60.59
2022-09-12T04:17:23.239Z,60.45
2022-09-12T04:18:25.463Z,60.20
2022-09-12T04:19:27.545Z,60.11
2022-09-12T04:20:29.235Z,59.91
2022-09-12T04:21:31.027Z,59.78
2022-09-12T04:22:33.347Z,59.67
2022-09-12T04:23:36.426Z,59.48
2022-09-12T04:24:38.032Z,59.27
2022-09-12T04:25:39.653Z,58.49
2022-09-12T04:26:41.895Z,58.51
2022-09-12T04:27:43.493Z,59.21
2022-09-12T04:28:46.476Z,60.22
2022-09-12T04:29:48.189Z,61.89
2022-09-12T04:30:50.442Z,63.61
2022-09-12T04:31:52.160Z,65.31
2022-09-12T04:32:53.790Z,66.02
2022-09-12T04:33:57.814Z,65.90
2022-09-12T04:34:59.870Z,65.21
2022-09-12T04:36:16.920Z,64.29
2022-09-12T04:37:19.012Z,63.53
2022-09-12T04:38:20.672Z,62.89
2022-09-12T04:39:22.279Z,62.37
2022-09-12T04:40:23.892Z,61.86
2022-09-12T04:41:32.076Z,61.48
2022-09-12T04:42:33.751Z,61.06
2022-09-12T04:43:35.350Z,60.73
2022-09-12T04:44:37.510Z,60.37
2022-09-12T04:45:39.165Z,60.22
2022-09-12T04:46:44.893Z,60.07
2022-09-12T04:47:46.818Z,59.81
2022-09-12T04:48:52.307Z,59.89
2022-09-12T04:49:59.952Z,59.55
2022-09-12T04:51:12.117Z,59.04
2022-09-12T04:52:13.836Z,58.17
2022-09-12T04:53:18.603Z,58.91
2022-09-12T04:54:20.593Z,60.31
2022-09-12T04:55:22.741Z,61.64
2022-09-12T04:56:26.457Z,63.00
2022-09-12T04:57:28.123Z,64.93
2022-09-12T04:58:32.266Z,65.70
2022-09-12T04:59:34.361Z,65.36
2022-09-12T05:00:35.962Z,64.56
2022-09-12T05:01:37.781Z,63.60
2022-09-12T05:02:40.975Z,62.67
2022-09-12T05:03:44.140Z,62.14
2022-09-12T05:04:46.881Z,61.42
2022-09-12T05:05:48.532Z,60.92
2022-09-12T05:06:50.267Z,60.41
2022-09-12T05:07:51.889Z,59.97
2022-09-12T05:08:54.212Z,59.60
2022-09-12T05:09:55.831Z,58.91
2022-09-12T05:11:03.688Z,58.46
2022-09-12T05:12:06.019Z,58.74
2022-09-12T05:13:09.397Z,59.81
2022-09-12T05:14:12.310Z,61.22
2022-09-12T05:15:14.028Z,62.65
2022-09-12T05:16:20.218Z,63.79
2022-09-12T05:17:21.981Z,64.98
2022-09-12T05:18:23.610Z,64.72
2022-09-12T05:19:25.303Z,64.32
2022-09-12T05:20:26.969Z,63.45
2022-09-12T05:21:28.683Z,62.57
2022-09-12T05:22:30.290Z,62.02
2022-09-12T05:23:32.449Z,61.35
2022-09-12T05:24:35.276Z,61.12
2022-09-12T05:25:37.008Z,60.76
2022-09-12T05:26:38.789Z,60.24
2022-09-12T05:27:40.488Z,60.15
2022-09-12T05:28:43.652Z,60.04
2022-09-12T05:29:45.354Z,59.79
2022-09-12T05:30:47.486Z,59.52
2022-09-12T05:31:52.056Z,59.37
2022-09-12T05:32:53.781Z,58.54
2022-09-12T05:33:56.641Z,58.09
2022-09-12T05:35:00.263Z,58.73
2022-09-12T05:36:04.188Z,59.79
2022-09-12T05:37:05.783Z,61.92
2022-09-12T05:38:08.377Z,63.40
2022-09-12T05:39:10.046Z,64.54
2022-09-12T05:40:13.546Z,64.89
2022-09-12T05:41:24.666Z,64.35
2022-09-12T05:42:29.941Z,63.22
2022-09-12T05:43:34.888Z,62.30
2022-09-12T05:44:36.964Z,61.57
2022-09-12T05:45:39.354Z,61.16
2022-09-12T05:46:43.674Z,60.62
2022-09-12T05:47:47.151Z,60.37
2022-09-12T05:48:55.071Z,59.95
2022-09-12T05:49:59.068Z,59.82
2022-09-12T05:51:08.809Z,59.55
2022-09-12T05:52:10.493Z,58.75
2022-09-12T05:53:12.114Z,58.31
2022-09-12T05:54:19.358Z,58.74
2022-09-12T05:55:21.510Z,59.72
2022-09-12T05:56:25.977Z,61.00
2022-09-12T05:57:27.661Z,61.85
2022-09-12T05:58:29.298Z,63.23
2022-09-12T05:59:31.055Z,64.53
2022-09-12T06:00:33.672Z,65.41
2022-09-12T06:01:35.873Z,65.00
2022-09-12T06:02:37.754Z,63.75
2022-09-12T06:03:48.314Z,62.68
2022-09-12T06:04:49.928Z,61.65
2022-09-12T06:05:51.695Z,60.99
2022-09-12T06:06:53.581Z,60.48
2022-09-12T06:07:56.497Z,59.97
2022-09-12T06:09:04.124Z,59.05
2022-09-12T06:10:06.190Z,58.13
2022-09-12T06:11:09.973Z,58.35
2022-09-12T06:12:11.607Z,59.29
2022-09-12T06:13:13.898Z,61.09
2022-09-12T06:14:17.543Z,61.43
2022-09-12T06:15:19.192Z,62.16
2022-09-12T06:16:30.002Z,63.39
2022-09-12T06:17:31.650Z,64.77
2022-09-12T06:18:33.293Z,64.16
2022-09-12T06:19:35.020Z,63.54
2022-09-12T06:20:36.945Z,61.75
2022-09-12T06:21:39.943Z,61.10
2022-09-12T06:22:41.691Z,60.87
2022-09-12T06:23:46.133Z,60.36
2022-09-12T06:24:47.789Z,59.72
2022-09-12T06:25:50.106Z,59.24
2022-09-12T06:26:54.721Z,58.22
2022-09-12T06:27:56.972Z,57.91
2022-09-12T06:29:01.002Z,58.28
2022-09-12T06:30:02.702Z,59.20
2022-09-12T06:31:11.208Z,60.96
2022-09-12T06:32:12.889Z,61.88
2022-09-12T06:33:15.523Z,62.60
2022-09-12T06:34:17.231Z,64.11
2022-09-12T06:35:19.246Z,64.65
2022-09-12T06:36:26.233Z,64.25
2022-09-12T06:37:28.420Z,63.07
2022-09-12T06:38:30.292Z,62.52
2022-09-12T06:39:32.557Z,61.36
2022-09-12T06:40:34.178Z,60.15
2022-09-12T06:41:37.618Z,59.37
2022-09-12T06:42:40.979Z,58.31
2022-09-12T06:43:43.142Z,57.71
2022-09-12T06:44:44.819Z,58.01
2022-09-12T06:45:50.343Z,58.56
2022-09-12T06:46:53.645Z,59.73
2022-09-12T06:47:55.561Z,60.78
2022-09-12T06:48:59.474Z,62.23
2022-09-12T06:50:01.281Z,63.50
2022-09-12T06:51:09.912Z,64.12
2022-09-12T06:52:11.501Z,63.92
2022-09-12T06:53:13.168Z,62.60
2022-09-12T06:54:16.991Z,61.36
2022-09-12T06:55:20.985Z,60.47
2022-09-12T06:56:27.070Z,59.20
2022-09-12T06:57:31.358Z,58.20
2022-09-12T06:58:34.340Z,58.22
2022-09-12T06:59:35.953Z,58.61
2022-09-12T07:00:37.690Z,59.46
2022-09-12T07:01:41.745Z,60.51
2022-09-12T07:02:43.739Z,61.54
2022-09-12T07:03:51.320Z,62.39
2022-09-12T07:04:53.177Z,63.64
2022-09-12T07:05:54.893Z,64.68
2022-09-12T07:06:56.498Z,64.26
2022-09-12T07:07:58.139Z,63.11
2022-09-12T07:09:02.823Z,61.54
2022-09-12T07:10:06.555Z,59.23
2022-09-12T07:11:20.235Z,58.70
2022-09-12T07:12:21.831Z,58.12
2022-09-12T07:13:23.460Z,58.47
2022-09-12T07:14:26.073Z,59.25
2022-09-12T07:15:27.770Z,59.97
2022-09-12T07:16:30.388Z,60.64
2022-09-12T07:17:32.234Z,61.64
2022-09-12T07:18:35.174Z,62.40
2022-09-12T07:19:36.795Z,63.46
2022-09-12T07:20:39.351Z,64.07
2022-09-12T07:21:41.164Z,64.05
2022-09-12T07:22:42.852Z,63.36
2022-09-12T07:23:45.354Z,60.86
2022-09-12T07:24:47.606Z,60.37
2022-09-12T07:25:53.958Z,58.85
2022-09-12T07:26:56.093Z,57.67
2022-09-12T07:27:58.336Z,57.12
2022-09-12T07:29:25.230Z,57.58
2022-09-12T07:30:23.019Z,58.92
2022-09-12T07:31:28.061Z,59.43
2022-09-12T07:32:29.685Z,60.20
2022-09-12T07:33:31.579Z,61.04
2022-09-12T07:34:34.112Z,61.38
2022-09-12T07:35:35.928Z,62.35
2022-09-12T07:36:37.924Z,63.33
2022-09-12T07:37:39.534Z,63.74
2022-09-12T07:38:42.303Z,63.11
2022-09-12T07:39:43.969Z,61.50
2022-09-12T07:40:45.603Z,59.93
2022-09-12T07:41:47.417Z,58.96
2022-09-12T07:42:49.625Z,57.87
2022-09-12T07:43:59.000Z,57.56
2022-09-12T07:45:01.960Z,58.22
2022-09-12T07:46:04.124Z,58.94
2022-09-12T07:47:05.986Z,60.00
2022-09-12T07:48:08.728Z,60.23
2022-09-12T07:49:12.451Z,60.73
2022-09-12T07:50:14.054Z,61.47
2022-09-12T07:51:15.823Z,61.79
2022-09-12T07:52:17.423Z,62.75
2022-09-12T07:53:19.025Z,63.29
2022-09-12T07:54:20.703Z,62.96
2022-09-12T07:55:22.564Z,60.18
2022-09-12T07:56:30.131Z,59.20
2022-09-12T07:57:32.250Z,57.85
2022-09-12T07:58:36.411Z,57.71
2022-09-12T07:59:52.392Z,57.99
2022-09-12T08:00:55.062Z,58.68
2022-09-12T08:01:56.995Z,59.47
2022-09-12T08:02:58.658Z,60.34
2022-09-12T08:04:00.623Z,61.14
2022-09-12T08:05:02.527Z,61.57
2022-09-12T08:06:10.634Z,62.24
2022-09-12T08:07:12.904Z,61.75
2022-09-12T08:08:14.809Z,61.80
2022-09-12T08:09:17.465Z,62.41
2022-09-12T08:10:19.083Z,63.19
2022-09-12T08:11:22.824Z,63.88
2022-09-12T08:12:24.473Z,62.67
2022-09-12T08:13:28.037Z,60.81
2022-09-12T08:14:29.799Z,60.47
2022-09-12T08:15:31.551Z,59.11
2022-09-12T08:16:35.649Z,56.96
2022-09-12T08:17:37.845Z,56.38
2022-09-12T08:18:40.869Z,57.07
2022-09-12T08:19:42.772Z,57.71
2022-09-12T08:20:44.702Z,58.09
2022-09-12T08:21:46.310Z,58.85
2022-09-12T08:22:48.178Z,59.24
2022-09-12T08:23:56.211Z,59.82
2022-09-12T08:24:58.622Z,59.97
2022-09-12T08:26:06.455Z,60.27
2022-09-12T08:27:08.287Z,60.78
2022-09-12T08:28:10.011Z,61.24
2022-09-12T08:29:11.839Z,61.84
2022-09-12T08:30:13.973Z,62.22
2022-09-12T08:31:18.770Z,62.62
2022-09-12T08:32:20.492Z,63.56
2022-09-12T08:33:22.468Z,63.55
2022-09-12T08:34:24.813Z,61.73
2022-09-12T08:35:26.432Z,59.00
2022-09-12T08:36:29.619Z,57.22
2022-09-12T08:37:32.147Z,56.53
2022-09-12T08:38:35.242Z,56.42
2022-09-12T08:39:37.001Z,56.97
2022-09-12T08:41:00.143Z,57.19
2022-09-12T08:42:04.835Z,58.15
2022-09-12T08:43:34.039Z,58.42
2022-09-12T08:45:17.990Z,58.76
2022-09-12T08:46:32.050Z,59.47
2022-09-12T08:47:39.208Z,60.05
2022-09-12T08:48:45.744Z,60.87
2022-09-12T08:50:09.462Z,61.05
2022-09-12T08:51:16.553Z,60.76
2022-09-12T08:52:23.410Z,60.71
2022-09-12T08:53:29.942Z,60.61
2022-09-12T08:54:33.278Z,60.40
2022-09-12T08:56:05.852Z,60.48
2022-09-12T08:57:11.726Z,60.69
2022-09-12T08:58:22.541Z,60.97
2022-09-12T08:59:25.567Z,61.17
2022-09-12T09:00:38.794Z,61.27
2022-09-12T09:01:45.591Z,61.30
2022-09-12T09:03:29.213Z,61.25
2022-09-12T09:04:51.952Z,61.52
2022-09-12T09:05:56.563Z,62.10
2022-09-12T09:07:11.739Z,62.18
2022-09-12T09:08:35.020Z,62.50
2022-09-12T09:10:07.726Z,62.76
2022-09-12T09:11:24.520Z,62.97
2022-09-12T09:12:55.350Z,61.42
2022-09-12T09:14:38.960Z,58.09
2022-09-12T09:16:08.106Z,54.23
2022-09-12T09:17:28.469Z,54.21
2022-09-12T09:18:35.146Z,54.56
2022-09-12T09:20:05.033Z,54.86
2022-09-12T09:21:23.748Z,55.44
2022-09-12T09:22:53.563Z,55.74
2022-09-12T09:24:05.774Z,56.50
2022-09-12T09:25:42.757Z,56.60
2022-09-12T09:27:01.486Z,56.82
2022-09-12T09:28:44.290Z,56.46
2022-09-12T09:29:53.240Z,56.36
2022-09-12T09:30:55.584Z,56.73
2022-09-12T09:32:03.676Z,57.15
2022-09-12T09:33:16.878Z,57.76
2022-09-12T09:34:24.278Z,57.80
2022-09-12T09:35:37.880Z,57.68
2022-09-12T09:37:05.834Z,57.10
2022-09-12T09:38:21.165Z,57.50
2022-09-12T09:39:31.182Z,58.47
2022-09-12T09:40:35.691Z,58.91
2022-09-12T09:42:04.514Z,58.49
2022-09-12T09:43:23.022Z,59.08
2022-09-12T09:44:28.666Z,59.02
2022-09-12T09:45:30.902Z,59.08
2022-09-12T09:46:33.641Z,59.41
2022-09-12T09:47:36.212Z,59.72
2022-09-12T09:48:43.857Z,59.42
2022-09-12T09:49:46.184Z,59.27
2022-09-12T09:50:49.695Z,58.47
2022-09-12T09:51:51.697Z,58.55
2022-09-12T09:52:58.862Z,58.43
2022-09-12T09:54:19.670Z,57.99
2022-09-12T09:55:28.363Z,57.94
2022-09-12T09:56:36.514Z,56.62
2022-09-12T09:57:41.634Z,56.62
2022-09-12T09:58:43.621Z,56.99
2022-09-12T09:59:45.267Z,57.62
2022-09-12T10:00:47.227Z,57.86
2022-09-12T10:01:56.734Z,57.70
2022-09-12T10:03:11.336Z,58.06
2022-09-12T10:04:41.627Z,57.80
2022-09-12T10:05:57.475Z,57.82
2022-09-12T10:07:02.331Z,57.84
2022-09-12T10:08:07.380Z,58.42
2022-09-12T10:09:14.894Z,58.64
2022-09-12T10:10:19.405Z,59.00
2022-09-12T10:11:23.246Z,59.05
2022-09-12T10:12:28.561Z,58.11
2022-09-12T10:13:37.871Z,57.79
2022-09-12T10:14:41.706Z,57.00
2022-09-12T10:15:58.114Z,56.30
2022-09-12T10:16:59.870Z,56.72
2022-09-12T10:18:03.039Z,57.24
2022-09-12T10:19:04.681Z,57.88
2022-09-12T10:20:35.657Z,58.55
2022-09-12T10:21:52.707Z,59.46
2022-09-12T10:22:54.393Z,59.48
2022-09-12T10:24:23.066Z,59.39
2022-09-12T10:25:27.149Z,59.49
2022-09-12T10:26:36.327Z,58.82
2022-09-12T10:27:38.069Z,59.11
2022-09-12T10:28:52.188Z,59.42
2022-09-12T10:30:01.909Z,58.98
2022-09-12T10:31:04.519Z,58.45
2022-09-12T10:32:09.444Z,58.27
2022-09-12T10:33:12.983Z,58.13
2022-09-12T10:34:28.010Z,58.13
2022-09-12T10:35:44.879Z,58.57
2022-09-12T10:36:46.841Z,58.68
2022-09-12T10:38:00.194Z,58.50
2022-09-12T10:39:03.186Z,59.26
2022-09-12T10:40:20.663Z,58.97
2022-09-12T10:41:23.789Z,58.48
2022-09-12T10:42:58.925Z,58.08
2022-09-12T10:44:14.547Z,57.61
2022-09-12T10:45:37.086Z,57.26
2022-09-12T10:46:40.053Z,56.83
2022-09-12T10:47:41.831Z,56.65
2022-09-12T10:48:48.012Z,56.86
2022-09-12T10:49:51.124Z,56.34
2022-09-12T10:50:52.844Z,56.33
2022-09-12T10:51:56.324Z,56.67
2022-09-12T10:53:20.998Z,56.20
2022-09-12T10:54:26.991Z,56.16
2022-09-12T10:55:34.928Z,56.45
2022-09-12T10:56:48.340Z,56.10
2022-09-12T10:58:16.685Z,56.50
2022-09-12T10:59:30.197Z,55.53
2022-09-12T11:00:40.831Z,55.36
2022-09-12T11:01:47.090Z,55.01
2022-09-12T11:03:11.282Z,54.29
2022-09-12T11:04:25.038Z,53.33
2022-09-12T11:05:38.697Z,50.99
2022-09-12T11:06:56.526Z,51.12
2022-09-12T11:08:17.273Z,51.68
2022-09-12T11:09:32.565Z,51.06
2022-09-12T11:10:57.029Z,49.50
2022-09-12T11:12:29.565Z,49.13
2022-09-12T11:13:46.158Z,50.19
2022-09-12T11:14:59.719Z,50.40
2022-09-12T11:16:24.127Z,50.96
2022-09-12T11:17:32.097Z,49.41
2022-09-12T11:18:56.510Z,49.37
2022-09-12T11:20:25.359Z,49.82
2022-09-12T11:21:58.136Z,49.37
2022-09-12T11:23:23.935Z,49.25
2022-09-12T11:24:56.687Z,49.42
2022-09-12T11:26:21.795Z,48.87
2022-09-12T11:27:53.668Z,48.33
2022-09-12T11:29:37.671Z,47.56
2022-09-12T11:31:03.107Z,48.51
2022-09-12T11:32:12.523Z,48.60
2022-09-12T11:33:29.474Z,48.62
2022-09-12T11:34:33.758Z,48.44
2022-09-12T11:35:49.798Z,48.54
2022-09-12T11:37:07.397Z,49.25
2022-09-12T11:38:23.987Z,49.14
2022-09-12T11:39:40.439Z,48.62
2022-09-12T11:41:03.555Z,47.96
2022-09-12T11:42:22.478Z,48.04
2022-09-12T11:43:54.014Z,48.43
2022-09-12T11:45:16.387Z,47.85
2022-09-12T11:46:36.281Z,48.05
2022-09-12T11:47:43.297Z,47.52
2022-09-12T11:49:16.181Z,47.70
2022-09-12T11:50:30.591Z,48.23
2022-09-12T11:51:44.097Z,47.49
2022-09-12T11:52:45.694Z,47.73
2022-09-12T11:54:15.864Z,47.31
2022-09-12T11:55:27.199Z,45.60
2022-09-12T11:56:28.876Z,46.86
2022-09-12T11:57:50.013Z,47.32
2022-09-12T11:59:02.934Z,48.03
2022-09-12T12:00:21.711Z,47.66
2022-09-12T12:01:31.836Z,47.00
2022-09-12T12:02:48.301Z,47.07
2022-09-12T12:03:52.479Z,47.06
2022-09-12T12:05:20.517Z,47.14
2022-09-12T12:06:32.076Z,46.89
2022-09-12T12:07:46.291Z,46.54
2022-09-12T12:08:50.580Z,47.27
2022-09-12T12:09:52.948Z,47.48
2022-09-12T12:11:04.670Z,47.08
2022-09-12T12:12:15.560Z,47.47
2022-09-12T12:13:24.145Z,47.67
2022-09-12T12:14:43.416Z,48.18
2022-09-12T12:15:49.187Z,47.77
2022-09-12T12:16:51.211Z,48.11
2022-09-12T12:18:15.247Z,48.23
2022-09-12T12:19:16.779Z,48.41
2022-09-12T12:20:18.520Z,48.51
2022-09-12T12:21:29.391Z,48.53
2022-09-12T12:22:31.464Z,48.01
2022-09-12T12:23:35.479Z,47.31
2022-09-12T12:25:17.257Z,46.84
2022-09-12T12:26:42.649Z,45.68
2022-09-12T12:27:44.177Z,44.97
2022-09-12T12:28:50.549Z,44.70
2022-09-12T12:29:52.239Z,45.32
2022-09-12T12:30:53.838Z,45.70
2022-09-12T12:32:01.987Z,45.39
2022-09-12T12:33:13.186Z,44.63
2022-09-12T12:34:42.207Z,44.50
2022-09-12T12:36:35.284Z,44.36
2022-09-12T12:37:42.907Z,44.32
2022-09-12T12:38:44.686Z,44.39
2022-09-12T12:39:48.224Z,43.99
2022-09-12T12:40:50.463Z,43.75
2022-09-12T12:41:52.101Z,43.59
2022-09-12T12:43:00.327Z,43.92
2022-09-12T12:44:42.381Z,44.85
2022-09-12T12:45:48.044Z,46.28
2022-09-12T12:47:18.631Z,47.06
2022-09-12T12:48:20.507Z,47.12
2022-09-12T12:49:28.508Z,46.73
2022-09-12T12:50:31.961Z,47.35
2022-09-12T12:51:53.112Z,47.99
2022-09-12T12:53:17.489Z,48.01
2022-09-12T12:54:50.769Z,47.67
2022-09-12T12:55:56.127Z,47.49
2022-09-12T12:57:23.301Z,47.84
2022-09-12T12:58:33.166Z,47.91
2022-09-12T12:59:34.877Z,47.92
2022-09-12T13:00:40.333Z,47.76
2022-09-12T13:01:54.744Z,47.63
2022-09-12T13:03:08.964Z,47.64
2022-09-12T13:04:17.505Z,45.67
2022-09-12T13:05:24.602Z,45.11
2022-09-12T13:06:37.488Z,45.00
2022-09-12T13:07:40.865Z,45.30
2022-09-12T13:09:00.087Z,45.26
2022-09-12T13:10:03.636Z,45.21
2022-09-12T13:11:15.435Z,45.40
2022-09-12T13:12:26.469Z,45.42
2022-09-12T13:13:53.402Z,45.15
2022-09-12T13:15:00.918Z,44.36
2022-09-12T13:16:02.985Z,44.36
2022-09-12T13:17:08.246Z,44.26
2022-09-12T13:18:25.873Z,43.67
2022-09-12T13:19:32.359Z,44.07
2022-09-12T13:20:45.027Z,43.95
2022-09-12T13:21:56.757Z,44.11
2022-09-12T13:22:58.794Z,44.17
2022-09-12T13:24:13.813Z,42.99
2022-09-12T13:25:19.858Z,43.64
2022-09-12T13:26:28.625Z,43.75
2022-09-12T13:27:30.281Z,43.36
2022-09-12T13:28:31.992Z,42.74
2022-09-12T13:29:33.619Z,42.57
2022-09-12T13:30:38.534Z,42.30
2022-09-12T13:31:46.643Z,41.95
2022-09-12T13:32:49.925Z,41.70
2022-09-12T13:33:56.621Z,41.53
2022-09-12T13:35:13.969Z,42.26
2022-09-12T13:36:37.474Z,42.43
2022-09-12T13:38:00.030Z,40.78
2022-09-12T13:39:28.854Z,40.68
2022-09-12T13:41:09.944Z,40.67
2022-09-12T13:42:29.739Z,41.83
2022-09-12T13:43:41.561Z,41.12
2022-09-12T13:44:52.740Z,41.54
2022-09-12T13:45:54.480Z,41.33
2022-09-12T13:47:01.599Z,40.97
2022-09-12T13:48:06.612Z,40.79
2022-09-12T13:49:35.650Z,41.19
2022-09-12T13:50:47.824Z,42.08
2022-09-12T13:52:00.735Z,41.13
2022-09-12T13:53:07.527Z,41.02
2022-09-12T13:54:24.355Z,41.64
2022-09-12T13:55:36.410Z,41.98
2022-09-12T13:56:48.668Z,42.24
2022-09-12T13:57:58.136Z,42.75
2022-09-12T13:59:02.439Z,43.10
2022-09-12T14:00:22.397Z,43.20
2022-09-12T14:01:38.118Z,42.87
2022-09-12T14:02:40.644Z,42.76
2022-09-12T14:04:08.587Z,42.48
2022-09-12T14:05:24.246Z,43.25
2022-09-12T14:06:27.607Z,43.27
2022-09-12T14:07:29.534Z,42.93
2022-09-12T14:08:31.672Z,43.54
2022-09-12T14:09:40.051Z,43.99
2022-09-12T14:10:44.955Z,43.68
2022-09-12T14:11:46.720Z,42.51
2022-09-12T14:12:50.775Z,42.07
2022-09-12T14:13:52.855Z,41.61
2022-09-12T14:14:55.006Z,41.88
2022-09-12T14:15:58.559Z,42.36
2022-09-12T14:17:01.067Z,42.30
2022-09-12T14:18:05.787Z,42.98
2022-09-12T14:19:12.181Z,43.61
2022-09-12T14:20:18.492Z,43.73
2022-09-12T14:21:30.426Z,43.81
2022-09-12T14:22:34.791Z,44.26
2022-09-12T14:23:41.591Z,44.72
2022-09-12T14:24:53.365Z,45.13
2022-09-12T14:25:58.640Z,45.61
2022-09-12T14:27:01.112Z,46.06
2022-09-12T14:28:04.552Z,46.51
2022-09-12T14:29:08.476Z,47.07
2022-09-12T14:30:37.381Z,47.50
2022-09-12T14:31:39.633Z,47.97
2022-09-12T14:32:41.266Z,48.03
2022-09-12T14:33:48.889Z,48.35
2022-09-12T14:35:10.567Z,48.43
2022-09-12T14:36:22.093Z,48.37
2022-09-12T14:37:25.269Z,48.83
2022-09-12T14:38:41.315Z,48.94
2022-09-12T14:39:45.591Z,48.85
2022-09-12T14:41:01.512Z,48.76
2022-09-12T14:42:12.184Z,48.92
2022-09-12T14:43:25.069Z,49.06
2022-09-12T14:44:31.036Z,49.38
2022-09-12T14:45:33.292Z,49.80
2022-09-12T14:46:40.477Z,50.07